Time;durP1;ratioP1;P1;durP2;ratioP2;P2;SDS_P1;SDS_P2;PMS_P1;PMS_P2;Temp;Humidity;BMP_temperature;BMP_pressure;BME280_temperature;BME280_humidity;BME280_pressure;Samples;Min_cycle;Max_cycle;Signal;HPM_P1;HPM_P2
2022/06/04 00:00:45;;;;;;;19.85;9.55;;;;;;;12.18;76.68;100994.09;5104808;28;20389;-70
2022/06/04 00:03:10;;;;;;;19.63;9.85;;;;;;;12.19;76.69;100992.38;5086184;28;20372;-70
2022/06/04 00:05:40;;;;;;;19.98;9.27;;;;;;;12.21;76.60;100993.22;5104492;28;20077;-70
2022/06/04 00:08:08;;;;;;;20.83;9.48;;;;;;;12.24;76.42;100985.38;5104402;28;20048;-70
2022/06/04 00:16:08;;;;;;;18.95;9.05;;;;;;;12.23;76.50;100991.47;5103862;28;20061;-70
2022/06/04 00:18:34;;;;;;;26.52;9.63;;;;;;;12.23;76.53;101001.88;5104002;28;20020;-70
2022/06/04 00:21:00;;;;;;;19.88;8.80;;;;;;;12.20;76.58;100997.56;5104077;28;20028;-71
2022/06/04 00:23:26;;;;;;;20.90;9.35;;;;;;;12.16;76.50;100989.78;5103994;28;20053;-70
2022/06/04 00:25:55;;;;;;;21.75;10.25;;;;;;;12.16;76.88;101003.66;5085606;28;20020;-70
2022/06/04 00:28:23;;;;;;;20.10;9.32;;;;;;;12.14;76.87;100993.25;5103572;28;20038;-70
2022/06/04 00:30:49;;;;;;;21.67;10.05;;;;;;;12.12;76.68;100991.53;5103753;28;20024;-70
2022/06/04 00:33:18;;;;;;;17.35;9.43;;;;;;;12.18;76.72;100994.09;5103779;28;20099;-70
2022/06/04 00:35:45;;;;;;;21.92;10.05;;;;;;;12.19;76.69;100995.81;5103502;28;20016;-70
2022/06/04 00:38:13;;;;;;;28.10;9.68;;;;;;;12.21;76.48;101003.63;5103790;28;20028;-70
2022/06/04 00:40:57;;;;;;;28.52;9.43;;;;;;;12.24;76.21;100993.19;5102804;28;20032;-70
2022/06/04 00:43:23;;;;;;;19.50;11.07;;;;;;;12.24;76.52;100986.25;5103421;28;20590;-69
2022/06/04 00:46:22;;;;;;;18.00;9.27;;;;;;;12.25;75.96;100989.75;5103481;28;20020;-70
2022/06/04 00:48:48;;;;;;;18.73;10.05;;;;;;;12.17;76.33;100991.50;5103617;28;20031;-70
2022/06/04 00:51:13;;;;;;;20.13;9.82;;;;;;;12.18;76.25;100999.31;5103385;28;20089;-69
2022/06/04 00:53:41;;;;;;;20.23;10.02;;;;;;;12.21;76.07;101004.50;5103430;28;20032;-69
2022/06/04 00:56:15;;;;;;;18.25;9.75;;;;;;;12.24;76.36;100996.69;5102973;28;20036;-69
2022/06/04 00:58:58;;;;;;;29.20;10.43;;;;;;;12.20;76.26;101004.50;5103370;28;20027;-70
2022/06/04 01:01:27;;;;;;;22.23;10.73;;;;;;;12.11;76.15;100988.06;5103248;28;20040;-69
2022/06/04 01:04:47;;;;;;;23.88;11.10;;;;;;;12.16;76.17;100998.44;5103311;28;20024;-70
2022/06/04 01:07:20;;;;;;;26.05;11.20;;;;;;;12.15;75.89;100994.13;5103089;28;20032;-69
2022/06/04 01:10:10;;;;;;;19.88;9.68;;;;;;;12.12;76.21;100999.34;5103263;28;20028;-69
2022/06/04 01:12:49;;;;;;;16.73;10.30;;;;;;;12.14;76.06;100997.63;5103270;28;20050;-70
2022/06/04 01:15:29;;;;;;;19.30;11.35;;;;;;;12.11;76.08;100995.88;5103146;28;20020;-70
2022/06/04 01:18:33;;;;;;;23.55;10.80;;;;;;;12.16;76.15;100998.44;5102989;28;20028;-68
2022/06/04 01:21:18;;;;;;;20.23;10.20;;;;;;;12.18;75.88;100998.44;5103143;28;20020;-70
2022/06/04 01:24:11;;;;;;;19.92;10.43;;;;;;;12.13;75.98;100999.34;5103311;28;20050;-69
2022/06/04 01:26:49;;;;;;;16.83;10.18;;;;;;;12.12;75.85;100995.00;5103108;28;20775;-69
2022/06/04 01:29:17;;;;;;;21.63;10.07;;;;;;;12.14;75.95;101002.81;5102813;28;20032;-69
2022/06/04 01:32:04;;;;;;;19.02;10.40;;;;;;;12.11;76.01;101005.41;5103027;28;20035;-69
2022/06/04 01:34:44;;;;;;;17.90;10.27;;;;;;;12.10;76.02;101001.09;5103139;28;20032;-69
2022/06/04 01:37:23;;;;;;;21.77;9.93;;;;;;;12.11;76.00;100998.47;5084715;28;20454;-69
2022/06/04 01:42:39;;;;;;;16.20;9.75;;;;;;;12.14;76.12;101000.22;5102990;28;20096;-69
2022/06/04 01:45:09;;;;;;;23.02;11.40;;;;;;;12.14;75.99;100997.63;5102992;28;20446;-69
2022/06/04 01:47:36;;;;;;;20.38;10.48;;;;;;;12.14;75.74;101006.25;5103032;28;20076;-69
2022/06/04 01:50:03;;;;;;;19.50;10.38;;;;;;;12.15;75.93;101007.13;5103288;28;20046;-69
2022/06/04 01:52:33;;;;;;;19.80;11.00;;;;;;;12.15;75.89;101009.75;5104185;28;20088;-69
2022/06/04 01:55:18;;;;;;;22.33;11.10;;;;;;;12.18;75.74;101011.47;5106869;28;20546;-69
2022/06/04 01:58:00;;;;;;;22.67;10.20;;;;;;;12.17;75.75;101002.81;5106858;28;20035;-69
2022/06/04 02:00:30;;;;;;;22.52;10.98;;;;;;;12.14;75.70;101003.66;5106602;28;20103;-70
2022/06/04 02:03:01;;;;;;;27.80;10.60;;;;;;;12.13;75.43;101001.06;5106992;28;20020;-69
2022/06/04 02:05:38;;;;;;;26.20;10.30;;;;;;;12.11;75.55;100995.88;5106372;28;20383;-69
2022/06/04 02:08:06;;;;;;;28.80;11.10;;;;;;;12.18;75.60;100998.44;5106894;28;20047;-69
2022/06/04 02:10:36;;;;;;;20.35;11.35;;;;;;;12.19;75.35;101010.59;5106207;28;20023;-69
2022/06/04 02:13:06;;;;;;;20.67;11.80;;;;;;;12.13;75.67;101008.88;5106500;28;20028;-70
2022/06/04 02:15:38;;;;;;;19.35;11.35;;;;;;;12.18;75.43;101004.53;5106071;28;20044;-70
2022/06/04 02:18:04;;;;;;;;;;;;;;;12.19;75.38;101010.59;5107076;28;20399;-69
2022/06/04 02:20:29;;;;;;;24.23;11.43;;;;;;;12.13;75.56;101006.28;5106149;28;19987;-69
2022/06/04 02:22:55;;;;;;;17.88;10.50;;;;;;;12.14;75.70;101016.69;5087870;28;20516;-69
2022/06/04 02:25:21;;;;;;;22.27;10.85;;;;;;;12.12;75.74;101013.22;5106147;28;20414;-70
2022/06/04 02:27:49;;;;;;;24.02;12.00;;;;;;;12.14;75.86;101013.22;5106237;28;20091;-70
2022/06/04 02:30:15;;;;;;;17.58;11.27;;;;;;;12.13;75.73;101017.56;5106001;28;20023;-70
2022/06/04 02:32:43;;;;;;;26.10;11.45;;;;;;;12.18;75.47;101008.84;5105755;28;20043;-70
2022/06/04 02:35:22;;;;;;;22.00;11.02;;;;;;;12.13;75.65;101012.34;5105851;28;20036;-70
2022/06/04 02:38:06;;;;;;;25.48;10.82;;;;;;;12.21;75.56;101019.25;5105861;28;20058;-70
2022/06/04 02:40:39;;;;;;;18.05;11.48;;;;;;;12.20;75.29;101014.91;5087536;28;20024;-70
2022/06/04 02:43:24;;;;;;;21.40;10.93;;;;;;;12.21;75.35;101020.13;5105888;28;20024;-69
2022/06/04 02:46:19;;;;;;;23.13;10.68;;;;;;;12.17;75.46;101018.41;5105684;28;20024;-69
2022/06/04 02:48:59;;;;;;;14.80;9.65;;;;;;;12.14;75.56;101023.66;5105699;28;20099;-70
2022/06/04 02:51:42;;;;;;;24.40;10.98;;;;;;;12.13;75.32;101022.78;5105585;28;20535;-70
2022/06/04 02:54:13;;;;;;;18.50;9.55;;;;;;;12.16;75.45;101031.44;5105529;28;20079;-70
2022/06/04 02:56:40;;;;;;;18.77;9.48;;;;;;;12.15;75.51;101030.56;5105259;28;20040;-70
2022/06/04 02:59:09;;;;;;;16.67;9.43;;;;;;;12.06;75.64;101026.22;5105488;28;20045;-70
2022/06/04 03:01:40;;;;;;;21.13;11.35;;;;;;;12.10;75.54;101028.00;5105488;28;20091;-70
2022/06/04 03:04:07;;;;;;;22.52;10.27;;;;;;;12.12;75.77;101035.78;5104645;28;20028;-70
2022/06/04 03:06:33;;;;;;;20.73;10.38;;;;;;;12.12;75.60;101031.44;5105348;28;20020;-70
2022/06/04 03:09:06;;;;;;;18.20;10.32;;;;;;;12.11;75.55;101034.91;5105398;28;20067;-70
2022/06/04 03:11:39;;;;;;;20.38;10.38;;;;;;;12.17;75.52;101033.16;5105206;28;20035;-69
2022/06/04 03:14:04;;;;;;;;;;;;;;;12.22;75.47;101039.22;5105505;28;20031;-70
2022/06/04 03:16:38;;;;;;;19.48;10.77;;;;;;;12.22;75.46;101047.03;5105133;28;19916;-69
2022/06/04 03:19:04;;;;;;;20.58;10.52;;;;;;;12.22;75.33;101049.63;5105320;28;20032;-69
2022/06/04 03:21:30;;;;;;;20.70;10.23;;;;;;;12.17;75.32;101056.59;5105094;28;20020;-69
2022/06/04 03:23:55;;;;;;;23.83;10.70;;;;;;;12.14;75.48;101050.50;5104964;28;20051;-69
2022/06/04 03:26:21;;;;;;;15.10;10.32;;;;;;;12.18;75.50;101050.50;5104801;28;20016;-69
2022/06/04 03:28:47;;;;;;;18.30;10.32;;;;;;;12.23;75.49;101056.56;5105046;28;20479;-69
2022/06/04 03:31:12;;;;;;;22.63;10.80;;;;;;;12.25;75.35;101057.44;5104714;28;20046;-69
2022/06/04 03:33:37;;;;;;;21.10;10.25;;;;;;;12.30;75.41;101053.03;5104869;28;20040;-69
2022/06/04 03:36:04;;;;;;;17.08;10.52;;;;;;;12.29;75.19;101048.72;5104963;28;20031;-69
2022/06/04 03:38:30;;;;;;;20.00;10.73;;;;;;;12.35;75.18;101051.28;5104895;28;20020;-69
2022/06/04 03:40:55;;;;;;;18.95;9.77;;;;;;;12.44;75.00;101059.91;5104661;28;20016;-69
2022/06/04 03:43:21;;;;;;;17.58;10.05;;;;;;;12.45;74.64;101059.03;5104673;28;20036;-69
2022/06/04 03:45:46;;;;;;;20.67;9.73;;;;;;;12.44;74.67;101057.31;5104502;28;20044;-69
2022/06/04 03:48:12;;;;;;;18.77;9.52;;;;;;;12.45;74.91;101065.13;5104637;28;20031;-69
2022/06/04 03:50:37;;;;;;;29.98;10.65;;;;;;;12.47;74.89;101057.28;5104087;28;20103;-69
2022/06/04 03:53:02;;;;;;;16.92;10.07;;;;;;;12.50;74.68;101062.50;5104566;28;20103;-69
2022/06/04 03:55:28;;;;;;;21.85;10.80;;;;;;;12.51;74.62;101062.47;5104194;28;20511;-69
2022/06/04 03:57:54;;;;;;;18.27;10.23;;;;;;;12.58;74.47;101063.31;5104319;28;20047;-69
2022/06/04 04:00:27;;;;;;;18.10;9.55;;;;;;;12.55;74.64;101058.13;5104121;28;20456;-69
2022/06/04 04:02:54;;;;;;;18.67;9.80;;;;;;;12.63;74.57;101068.50;5104312;28;20031;-69
2022/06/04 04:05:23;;;;;;;18.73;9.63;;;;;;;12.69;74.70;101072.78;5104326;28;20091;-69
2022/06/04 04:07:50;;;;;;;21.70;10.57;;;;;;;12.75;74.25;101067.53;5104122;28;20023;-69
2022/06/04 04:10:16;;;;;;;16.77;10.10;;;;;;;12.78;74.01;101067.50;5104237;28;20076;-69
2022/06/04 04:12:42;;;;;;;17.38;9.35;;;;;;;12.79;73.92;101071.00;5104034;28;20024;-70
2022/06/04 04:15:08;;;;;;;16.48;9.52;;;;;;;12.80;73.75;101075.31;5103865;28;20059;-69
2022/06/04 04:17:36;;;;;;;16.38;8.35;;;;;;;12.80;73.72;101065.75;5103935;28;20016;-69
2022/06/04 04:20:05;;;;;;;18.90;8.90;;;;;;;12.91;73.60;101062.22;5103971;28;20020;-70
2022/06/04 04:22:30;;;;;;;16.38;9.23;;;;;;;12.93;73.60;101070.88;5103772;28;20028;-69
2022/06/04 04:24:56;;;;;;;18.48;9.02;;;;;;;12.99;73.53;101076.91;5103995;28;20031;-69
2022/06/04 04:27:21;;;;;;;15.93;8.57;;;;;;;13.10;73.16;101076.00;5103911;28;20046;-69
2022/06/04 04:29:47;;;;;;;18.13;9.45;;;;;;;13.23;72.97;101081.94;5103802;28;20098;-70
2022/06/04 04:32:12;;;;;;;17.80;9.32;;;;;;;13.29;72.60;101078.44;5103922;28;20472;-69
2022/06/04 04:34:38;;;;;;;21.23;9.38;;;;;;;13.31;72.36;101080.13;5103977;28;20456;-70
2022/06/04 04:37:04;;;;;;;16.77;7.88;;;;;;;13.28;72.34;101087.97;5103827;28;20028;-69
2022/06/04 04:39:29;;;;;;;18.23;9.43;;;;;;;13.30;72.14;101096.66;5103880;28;20031;-69
2022/06/04 04:41:54;;;;;;;20.95;9.68;;;;;;;13.35;71.93;101100.09;5085834;28;20088;-69
2022/06/04 04:44:21;;;;;;;15.38;8.90;;;;;;;13.41;71.55;101087.88;5103596;28;20031;-71
2022/06/04 04:46:49;;;;;;;17.00;7.97;;;;;;;13.46;71.43;101088.69;5103873;28;20031;-70
2022/06/04 04:49:15;;;;;;;20.35;8.73;;;;;;;13.50;71.15;101093.00;5103796;28;20024;-69
2022/06/04 04:51:40;;;;;;;13.90;9.05;;;;;;;13.58;71.25;101088.59;5103477;28;20027;-70
2022/06/04 04:54:06;;;;;;;18.77;9.55;;;;;;;13.62;71.05;101092.06;5103714;28;20034;-70
2022/06/04 04:56:32;;;;;;;19.98;8.80;;;;;;;13.70;71.08;101094.59;5103268;28;20055;-69
2022/06/04 04:58:57;;;;;;;16.88;8.68;;;;;;;13.75;71.07;101100.63;5085296;28;20039;-70
2022/06/04 05:01:25;;;;;;;24.83;9.48;;;;;;;13.81;70.92;101105.78;5103339;28;20096;-69
2022/06/04 05:03:51;;;;;;;19.45;8.93;;;;;;;13.86;70.65;101096.16;5103554;28;20024;-69
2022/06/04 05:06:18;;;;;;;15.88;9.23;;;;;;;13.99;70.19;101109.06;5103614;28;20020;-69
2022/06/04 05:08:44;;;;;;;21.23;9.60;;;;;;;14.03;69.91;101102.91;5103350;28;20024;-69
2022/06/04 05:11:13;;;;;;;20.50;8.52;;;;;;;14.08;69.93;101102.84;5103501;28;20442;-69
2022/06/04 05:13:39;;;;;;;19.40;9.18;;;;;;;14.12;69.85;101107.19;5103413;28;20045;-69
2022/06/04 05:16:05;;;;;;;18.27;9.05;;;;;;;14.13;69.63;101115.00;5103180;28;20020;-69
2022/06/04 05:18:30;;;;;;;19.50;8.38;;;;;;;14.24;69.55;101116.59;5103679;28;20182;-69
2022/06/04 05:21:19;;;;;;;13.68;8.88;;;;;;;14.30;69.43;101106.06;5103182;28;20053;-70
2022/06/04 05:23:44;;;;;;;11.98;7.90;;;;;;;14.33;69.12;101116.47;5103194;28;20024;-70
2022/06/04 05:26:10;;;;;;;14.80;9.38;;;;;;;14.41;69.11;101120.75;5103048;28;20031;-70
2022/06/04 05:28:35;;;;;;;12.35;8.35;;;;;;;14.51;68.56;101124.97;5106683;28;20016;-70
2022/06/04 05:31:02;;;;;;;15.27;9.13;;;;;;;14.50;68.53;101129.31;5107200;28;20019;-70
2022/06/04 05:33:27;;;;;;;13.50;8.77;;;;;;;14.56;67.94;101127.50;5107728;28;20039;-70
2022/06/04 05:35:53;;;;;;;16.63;8.32;;;;;;;14.53;67.86;101123.19;5107452;28;20047;-70
2022/06/04 05:38:18;;;;;;;15.75;7.85;;;;;;;14.54;68.13;101126.66;5107274;28;20084;-70
2022/06/04 05:40:43;;;;;;;14.52;8.60;;;;;;;14.61;67.93;101126.56;5107505;28;20032;-69
2022/06/04 05:43:09;;;;;;;13.05;8.88;;;;;;;14.68;68.06;101124.72;5107260;28;20055;-70
2022/06/04 05:45:34;;;;;;;16.08;8.43;;;;;;;14.71;67.86;101110.75;5106941;28;20047;-70
2022/06/04 05:48:00;;;;;;;11.40;7.13;;;;;;;14.88;67.50;101128.84;5107453;28;20055;-71
2022/06/04 05:50:25;;;;;;;13.55;7.53;;;;;;;14.95;67.18;101124.38;5107123;28;20083;-70
2022/06/04 05:52:51;;;;;;;16.35;7.65;;;;;;;15.04;66.48;101124.25;5107012;28;20024;-70
2022/06/04 05:55:16;;;;;;;15.63;8.07;;;;;;;15.03;66.49;101121.66;5106755;28;20020;-70
2022/06/04 05:57:42;;;;;;;14.18;7.60;;;;;;;15.09;66.62;101132.88;5107306;28;20029;-70
2022/06/04 06:00:08;;;;;;;14.48;7.20;;;;;;;15.16;66.76;101124.94;5106904;28;20422;-70
2022/06/04 06:02:37;;;;;;;11.38;7.43;;;;;;;15.24;66.13;101120.44;5107031;28;20024;-70
2022/06/04 06:05:03;;;;;;;13.82;7.47;;;;;;;15.31;65.94;101136.88;5106812;28;20031;-70
2022/06/04 06:07:29;;;;;;;17.83;7.63;;;;;;;15.44;65.40;101137.56;5106825;28;20046;-70
2022/06/04 06:09:55;;;;;;;12.05;7.00;;;;;;;15.53;65.32;101139.16;5106859;28;20077;-71
2022/06/04 06:12:20;;;;;;;13.75;7.00;;;;;;;15.59;64.72;101137.28;5106629;28;20032;-71
2022/06/04 06:14:46;;;;;;;11.02;7.32;;;;;;;15.63;64.65;101147.69;5106535;28;20020;-70
2022/06/04 06:17:11;;;;;;;18.08;7.65;;;;;;;15.69;63.56;101142.34;5106429;28;20028;-71
2022/06/04 06:19:36;;;;;;;12.93;7.65;;;;;;;15.45;63.68;101140.13;5106563;28;20020;-71
2022/06/04 06:22:02;;;;;;;10.23;6.53;;;;;;;15.50;64.41;101153.16;5106227;28;20023;-71
2022/06/04 06:24:28;;;;;;;13.38;7.22;;;;;;;15.61;63.91;101145.09;5106361;28;20472;-70
2022/06/04 06:26:56;;;;;;;12.77;7.03;;;;;;;15.60;63.46;101146.00;5105928;28;20020;-70
2022/06/04 06:29:23;;;;;;;12.13;6.78;;;;;;;15.68;63.93;101157.22;5105666;28;20031;-70
2022/06/04 06:31:49;;;;;;;15.50;6.93;;;;;;;15.88;63.20;101148.09;5106061;28;20026;-70
2022/06/04 06:34:15;;;;;;;14.30;6.93;;;;;;;15.97;62.44;101153.19;5087457;28;20051;-70
2022/06/04 06:36:42;;;;;;;16.15;7.65;;;;;;;15.94;62.60;101163.69;5105949;28;20024;-70
2022/06/04 06:39:07;;;;;;;12.27;6.85;;;;;;;15.97;62.18;101160.19;5104210;28;20051;-70
2022/06/04 06:41:33;;;;;;;13.73;7.50;;;;;;;15.92;62.02;101164.63;5105382;28;20019;-70
2022/06/04 06:43:58;;;;;;;11.27;6.63;;;;;;;16.03;62.29;101169.69;5105728;28;20016;-70
2022/06/04 06:46:28;;;;;;;11.90;6.53;;;;;;;16.25;62.34;101164.91;5105425;28;20047;-71
2022/06/04 06:49:10;;;;;;;12.30;7.15;;;;;;;16.52;61.78;101175.69;5105887;28;20027;-71
2022/06/04 06:51:41;;;;;;;;;;;;;;;16.88;60.55;101176.69;5105999;28;20027;-71
2022/06/04 06:54:08;;;;;;;11.93;5.80;;;;;;;17.01;60.10;101178.16;5105608;28;19920;-71
2022/06/04 06:56:38;;;;;;;10.95;6.07;;;;;;;17.09;59.17;101181.47;5105216;28;20337;-69
2022/06/04 06:59:04;;;;;;;15.70;6.80;;;;;;;17.16;59.45;101162.97;5105619;28;20028;-69
2022/06/04 07:01:31;;;;;;;9.73;6.60;;;;;;;17.31;59.73;101185.34;5105110;28;20044;-70
2022/06/04 07:03:57;;;;;;;10.52;5.88;;;;;;;17.46;58.67;101179.72;5087325;28;20020;-70
2022/06/04 07:06:44;;;;;;;8.95;5.63;;;;;;;17.66;58.05;101188.88;5105298;28;20039;-70
2022/06/04 07:09:26;;;;;;;14.80;7.30;;;;;;;17.75;57.92;101182.50;5105392;28;20032;-70
2022/06/04 07:11:52;;;;;;;8.50;6.22;;;;;;;17.75;57.64;101185.13;5105297;28;20020;-70
2022/06/04 07:14:19;;;;;;;9.05;5.82;;;;;;;17.68;56.89;101189.66;5105286;28;20020;-71
2022/06/04 07:16:45;;;;;;;12.73;6.32;;;;;;;17.66;57.13;101198.50;5105100;28;20020;-70
2022/06/04 07:19:13;;;;;;;14.90;6.45;;;;;;;17.78;57.24;101203.44;5105073;28;20024;-69
2022/06/04 07:21:39;;;;;;;9.57;5.82;;;;;;;17.88;56.57;101201.44;5104883;28;20020;-71
2022/06/04 07:24:05;;;;;;;11.88;6.78;;;;;;;18.07;56.60;101209.69;5105168;28;20024;-70
2022/06/04 07:26:30;;;;;;;14.15;6.10;;;;;;;18.17;56.06;101212.09;5105124;28;20102;-71
2022/06/04 07:28:56;;;;;;;12.80;6.70;;;;;;;18.13;55.45;101210.47;5105003;28;20024;-70
2022/06/04 07:31:23;;;;;;;9.05;5.93;;;;;;;18.11;55.74;101218.34;5104715;28;20046;-69
2022/06/04 07:33:52;;;;;;;8.50;5.63;;;;;;;18.00;55.54;101210.75;5104735;28;20491;-69
2022/06/04 07:36:22;;;;;;;14.02;6.80;;;;;;;18.21;55.15;101213.75;5104916;28;20047;-69
2022/06/04 07:38:47;;;;;;;9.48;6.03;;;;;;;18.21;55.20;101217.22;5104797;28;20024;-70
2022/06/04 07:41:25;;;;;;;13.13;5.95;;;;;;;18.30;55.43;101212.59;5104500;28;20024;-69
2022/06/04 07:43:51;;;;;;;13.52;6.25;;;;;;;18.46;54.52;101228.81;5104671;28;20078;-69
2022/06/04 07:46:18;;;;;;;10.80;6.15;;;;;;;18.58;54.64;101225.81;5104269;28;20016;-72
2022/06/04 07:48:44;;;;;;;11.07;5.72;;;;;;;18.89;54.29;101231.94;5104488;28;20083;-70
2022/06/04 07:51:10;;;;;;;10.10;5.85;;;;;;;19.03;53.75;101218.38;5103782;28;20035;-79
2022/06/04 07:53:36;;;;;;;11.80;5.78;;;;;;;19.28;53.49;101229.94;5104590;28;20494;-69
2022/06/04 07:56:14;;;;;;;9.13;6.10;;;;;;;19.20;52.50;101217.84;5104112;28;20040;-72
2022/06/04 07:58:40;;;;;;;11.00;6.45;;;;;;;19.09;52.41;101217.34;5085873;28;20031;-73
2022/06/04 08:01:06;;;;;;;12.02;5.63;;;;;;;19.01;52.69;101221.97;5103895;28;20040;-73
2022/06/04 08:03:34;;;;;;;11.25;5.40;;;;;;;18.88;52.43;101218.84;5104113;28;20042;-70
2022/06/04 08:06:01;;;;;;;13.38;6.70;;;;;;;18.99;52.67;101227.28;5104113;28;20087;-71
2022/06/04 08:08:27;;;;;;;10.13;5.80;;;;;;;19.19;52.35;101215.28;5103918;28;20073;-67
2022/06/04 08:10:52;;;;;;;9.45;5.80;;;;;;;19.36;51.78;101224.41;5085661;28;20095;-65
2022/06/04 08:15:47;;;;;;;11.95;5.35;;;;;;;19.50;51.31;101237.13;5103660;28;20089;-73
2022/06/04 08:18:12;;;;;;;14.38;6.22;;;;;;;19.56;50.96;101229.03;5103847;28;20043;-65
2022/06/04 08:20:44;;;;;;;9.30;5.30;;;;;;;19.65;50.88;101220.81;5103907;28;20016;-68
2022/06/04 08:23:11;;;;;;;10.52;5.00;;;;;;;20.22;50.39;101222.41;5104398;28;20016;-66
2022/06/04 08:25:41;;;;;;;8.65;5.35;;;;;;;21.58;48.76;101226.94;5104227;28;20023;-66
2022/06/04 08:28:06;;;;;;;12.65;4.90;;;;;;;22.44;46.51;101225.91;5104128;28;20020;-65
2022/06/04 08:30:32;;;;;;;9.35;5.18;;;;;;;22.53;44.69;101230.78;5103968;28;20020;-72
2022/06/04 08:32:58;;;;;;;9.35;5.10;;;;;;;22.64;45.20;101223.22;5103940;28;20089;-73
2022/06/04 08:35:24;;;;;;;9.02;5.47;;;;;;;23.05;43.23;101218.69;5085506;28;20059;-73
2022/06/04 08:37:50;;;;;;;8.45;5.45;;;;;;;23.62;43.44;101232.72;5103705;28;20049;-68
2022/06/04 08:40:32;;;;;;;9.52;5.53;;;;;;;24.35;42.22;101233.44;5104003;28;20027;-72
2022/06/04 08:43:45;;;;;;;9.80;5.32;;;;;;;24.74;41.66;101234.00;5103578;28;20034;-71
2022/06/04 08:46:16;;;;;;;8.95;5.13;;;;;;;25.59;39.80;101236.28;5099728;28;20028;-74
2022/06/04 08:48:42;;;;;;;10.18;5.88;;;;;;;26.39;37.57;101231.56;5103142;28;20038;-74
2022/06/04 08:51:20;;;;;;;9.20;4.57;;;;;;;26.90;36.22;101227.47;5103085;28;20035;-74
2022/06/04 08:53:49;;;;;;;10.13;5.05;;;;;;;27.29;35.78;101225.00;5103539;28;20019;-73
2022/06/04 08:59:28;;;;;;;8.27;4.60;;;;;;;28.20;34.28;101235.75;5103855;28;20542;-74
2022/06/04 09:02:01;;;;;;;7.63;4.80;;;;;;;28.62;33.59;101218.63;5102906;28;20349;-75
2022/06/04 09:04:45;;;;;;;7.50;5.05;;;;;;;28.86;33.32;101216.94;5103710;28;20031;-75
2022/06/04 09:07:16;;;;;;;7.53;5.05;;;;;;;29.23;32.40;101227.59;5103728;28;20052;-75
2022/06/04 09:10:06;;;;;;;6.23;4.30;;;;;;;29.43;32.48;101230.56;5103512;28;20019;-74
2022/06/04 09:12:54;;;;;;;6.88;4.05;;;;;;;29.53;31.55;101230.72;5103310;28;20026;-73
2022/06/04 09:15:31;;;;;;;9.02;4.55;;;;;;;29.68;30.76;101231.41;5103422;28;20024;-73
2022/06/04 09:18:01;;;;;;;9.00;5.18;;;;;;;29.86;30.57;101245.16;5085037;28;20055;-73
2022/06/04 09:20:39;;;;;;;9.93;4.70;;;;;;;30.12;30.45;101236.91;5103236;28;20024;-74
2022/06/04 09:23:26;;;;;;;6.85;4.13;;;;;;;30.50;29.81;101233.97;5103382;28;20028;-74
2022/06/04 09:25:54;;;;;;;9.02;4.97;;;;;;;30.41;28.37;101232.91;5085188;28;20024;-74
2022/06/04 09:28:30;;;;;;;8.68;4.75;;;;;;;29.89;28.78;101236.88;5103410;28;20024;-73
2022/06/04 09:31:11;;;;;;;7.50;4.60;;;;;;;29.60;29.28;101237.34;5103003;28;20008;-74
2022/06/04 09:33:49;;;;;;;9.43;4.38;;;;;;;29.92;29.64;101235.81;5103570;28;20050;-73
2022/06/04 09:36:18;;;;;;;7.97;4.22;;;;;;;30.24;29.08;101239.63;5103294;28;20025;-74
2022/06/04 09:38:59;;;;;;;7.85;4.55;;;;;;;30.58;28.87;101234.22;5103395;28;20036;-74
2022/06/04 09:41:28;;;;;;;7.10;4.90;;;;;;;30.63;28.43;101234.69;5103296;28;20028;-74
2022/06/04 09:44:08;;;;;;;8.32;4.55;;;;;;;29.99;28.61;101237.03;5103345;28;20027;-75
2022/06/04 09:46:35;;;;;;;6.45;4.57;;;;;;;29.23;29.25;101245.44;5103106;28;20069;-74
2022/06/04 09:49:07;;;;;;;9.57;5.03;;;;;;;28.57;30.37;101240.31;5103344;28;20026;-74
2022/06/04 09:51:40;;;;;;;10.77;4.60;;;;;;;28.68;31.31;101236.88;5103197;28;20487;-75
2022/06/04 09:54:06;;;;;;;6.97;4.93;;;;;;;29.37;30.35;101242.59;5103305;28;20423;-76
2022/06/04 09:56:38;;;;;;;8.48;5.75;;;;;;;29.24;30.09;101244.47;5102704;28;20099;-74
2022/06/04 09:59:24;;;;;;;9.77;4.85;;;;;;;28.88;30.40;101234.56;5103073;28;20057;-74
2022/06/04 10:01:59;;;;;;;8.20;4.68;;;;;;;28.38;31.24;101240.78;5102794;28;20035;-72
2022/06/04 10:04:39;;;;;;;7.13;4.82;;;;;;;27.65;31.39;101246.63;5103243;28;20024;-72
2022/06/04 10:07:07;;;;;;;7.05;4.75;;;;;;;26.73;32.70;101245.44;5103116;28;20027;-75
2022/06/04 10:13:42;;;;;;;8.63;4.85;;;;;;;27.07;32.84;101241.56;5103237;28;20039;-74
2022/06/04 10:15:15;;;;;;;8.02;5.00;;;;;;;27.26;32.39;101243.84;5106329;28;20565;-74
2022/06/04 10:17:41;;;;;;;7.55;5.00;;;;;;;27.40;32.07;101242.06;5106741;28;20040;-75
2022/06/04 10:20:19;;;;;;;10.32;5.60;;;;;;;27.59;32.34;101231.88;5106658;28;20035;-74
2022/06/04 10:22:49;;;;;;;10.05;5.13;;;;;;;27.63;31.95;101240.53;5106410;28;20038;-74
2022/06/04 10:25:28;;;;;;;6.05;4.13;;;;;;;27.58;32.01;101234.66;5106655;28;20095;-75
2022/06/04 10:27:53;;;;;;;7.93;4.78;;;;;;;27.65;32.01;101230.63;5106524;28;20376;-75
2022/06/04 10:30:50;;;;;;;6.75;4.85;;;;;;;27.64;31.52;101230.69;5106352;28;20027;-73
2022/06/04 10:33:46;;;;;;;8.15;5.10;;;;;;;27.52;31.89;101227.06;5106502;28;20044;-73
2022/06/04 10:36:17;;;;;;;10.57;5.15;;;;;;;27.53;32.17;101228.75;5106312;28;20026;-74
2022/06/04 10:38:52;;;;;;;8.35;5.53;;;;;;;27.62;31.86;101225.47;5106505;28;20054;-74
2022/06/04 10:41:42;;;;;;;9.55;5.45;;;;;;;27.77;31.59;101230.75;5106367;28;20032;-72
2022/06/04 10:44:33;;;;;;;8.95;4.38;;;;;;;27.68;31.96;101226.91;5106611;28;20111;-74
2022/06/04 10:47:21;;;;;;;11.48;4.90;;;;;;;27.50;31.78;101244.97;5106053;28;20027;-74
2022/06/04 10:50:02;;;;;;;7.80;5.20;;;;;;;27.28;31.63;101241.97;5087461;28;20020;-74
2022/06/04 10:53:00;;;;;;;9.75;4.93;;;;;;;27.16;32.44;101246.28;5105941;28;20028;-74
2022/06/04 10:55:45;;;;;;;8.85;5.10;;;;;;;26.97;33.14;101244.78;5105791;28;20032;-72
2022/06/04 10:58:28;;;;;;;10.95;5.80;;;;;;;26.44;33.58;101249.94;5087340;28;20032;-72
2022/06/04 11:01:11;;;;;;;9.05;5.65;;;;;;;25.63;34.49;101247.63;5105461;28;20039;-73
2022/06/04 11:03:51;;;;;;;10.32;6.32;;;;;;;24.80;36.01;101238.09;5105518;28;20048;-73
2022/06/04 11:06:29;;;;;;;10.52;6.32;;;;;;;24.00;37.14;101240.50;5105703;28;20020;-74
2022/06/04 11:09:23;;;;;;;11.65;6.15;;;;;;;23.20;38.68;101246.22;5105473;28;20020;-74
2022/06/04 11:12:01;;;;;;;9.35;5.85;;;;;;;22.49;40.22;101245.09;5105860;28;20020;-72
2022/06/04 11:14:39;;;;;;;10.18;5.97;;;;;;;21.97;41.27;101257.03;5105687;28;20028;-73
2022/06/04 11:17:17;;;;;;;9.63;6.13;;;;;;;21.54;42.14;101263.19;5105248;28;20020;-72
2022/06/04 11:19:54;;;;;;;12.35;7.15;;;;;;;21.21;43.23;101253.06;5105360;28;20020;-73
2022/06/04 11:22:44;;;;;;;10.38;6.22;;;;;;;20.83;43.76;101257.09;5105366;28;20050;-73
2022/06/04 11:25:42;;;;;;;9.98;6.40;;;;;;;20.49;44.56;101256.59;5104586;28;20012;-73
2022/06/04 11:28:11;;;;;;;12.90;7.18;;;;;;;20.23;45.70;101265.44;5089541;28;20060;-72
2022/06/04 11:30:54;;;;;;;9.90;6.47;;;;;;;19.98;46.20;101255.75;5105073;28;20037;-73
2022/06/04 11:33:26;;;;;;;12.02;7.75;;;;;;;19.84;46.55;101256.22;5105156;28;20024;-72
2022/06/04 11:36:18;;;;;;;12.97;7.03;;;;;;;19.67;47.25;101244.47;5105159;28;20016;-73
2022/06/04 11:39:04;;;;;;;19.52;7.38;;;;;;;19.45;48.15;101245.19;5074206;28;20257;-73
2022/06/04 11:42:12;;;;;;;14.35;8.05;;;;;;;19.30;48.67;101247.38;5104919;28;20020;-72
2022/06/04 11:44:49;;;;;;;12.68;7.22;;;;;;;19.03;49.60;101244.69;5104837;28;20099;-72
2022/06/04 11:47:44;;;;;;;11.07;7.07;;;;;;;18.90;50.41;101248.56;5104770;28;20069;-73
2022/06/04 11:50:18;;;;;;;17.45;8.35;;;;;;;18.82;50.48;101252.31;5104943;28;20035;-73
2022/06/04 11:52:59;;;;;;;14.68;8.52;;;;;;;18.83;50.71;101248.75;5104702;28;20046;-72
2022/06/04 11:55:29;;;;;;;13.10;7.88;;;;;;;18.79;50.92;101252.41;5104524;28;20072;-73